createdAt,value
2018-08-19T00:00:04.087Z,13.5
2018-08-19T00:01:04.295Z,13.5
2018-08-19T00:02:04.184Z,13.5
2018-08-19T00:03:05.329Z,13.5
2018-08-19T00:04:03.878Z,13.5
2018-08-19T00:05:04.048Z,13.5
2018-08-19T00:06:04.599Z,13.562
2018-08-19T00:07:03.746Z,13.625
2018-08-19T00:08:04.574Z,13.625
2018-08-19T00:09:04.683Z,13.562
2018-08-19T00:10:03.931Z,13.5
2018-08-19T00:11:04.220Z,13.5
2018-08-19T00:12:03.973Z,13.375
2018-08-19T00:13:03.662Z,13.312
2018-08-19T00:14:03.660Z,13.312
2018-08-19T00:15:03.924Z,13.312
2018-08-19T00:16:05.264Z,13.375
2018-08-19T00:17:04.990Z,13.375
2018-08-19T00:18:04.166Z,13.375
2018-08-19T00:19:04.111Z,13.375
2018-08-19T00:20:06.367Z,13.375
2018-08-19T00:21:04.556Z,13.437
2018-08-19T00:22:05.022Z,13.5
2018-08-19T00:23:04.305Z,13.5
2018-08-19T00:24:04.003Z,13.5
2018-08-19T00:25:04.200Z,13.5
2018-08-19T00:26:03.665Z,13.5
2018-08-19T00:27:03.785Z,13.5
2018-08-19T00:28:03.951Z,13.562
2018-08-19T00:29:04.302Z,13.562
2018-08-19T00:30:05.507Z,13.625
2018-08-19T00:31:04.402Z,13.687
2018-08-19T00:32:03.600Z,13.687
2018-08-19T00:33:04.004Z,13.687
2018-08-19T00:34:03.622Z,13.625
2018-08-19T00:35:03.767Z,13.625
2018-08-19T00:36:04.226Z,13.562
2018-08-19T00:37:04.591Z,13.5
2018-08-19T00:38:04.622Z,13.437
2018-08-19T00:39:05.363Z,13.437
2018-08-19T00:40:05.290Z,13.375
2018-08-19T00:41:03.813Z,13.375
2018-08-19T00:42:03.851Z,13.375
2018-08-19T00:43:04.595Z,13.375
2018-08-19T00:44:04.222Z,13.375
2018-08-19T00:45:04.085Z,13.375
2018-08-19T00:46:04.715Z,13.312
2018-08-19T00:47:04.129Z,13.312
2018-08-19T00:48:03.787Z,13.25
2018-08-19T00:49:04.090Z,13.187
2018-08-19T00:50:04.465Z,13.125
2018-08-19T00:51:03.791Z,13.062
2018-08-19T00:52:04.488Z,13.062
2018-08-19T00:53:03.811Z,13
2018-08-19T00:54:04.122Z,13
2018-08-19T00:55:03.489Z,12.937
2018-08-19T00:56:04.246Z,12.937
2018-08-19T00:57:05.622Z,12.875
2018-08-19T00:58:07.251Z,12.875
2018-08-19T00:59:05.178Z,12.812
2018-08-19T01:00:05.468Z,12.812
2018-08-19T01:01:03.678Z,12.812
2018-08-19T01:02:04.189Z,12.75
2018-08-19T01:03:03.734Z,12.812
2018-08-19T01:04:04.072Z,12.812
2018-08-19T01:05:04.222Z,12.812
2018-08-19T01:06:04.816Z,12.812
2018-08-19T01:07:04.227Z,12.75
2018-08-19T01:08:03.501Z,12.812
2018-08-19T01:09:04.462Z,12.812
2018-08-19T01:10:04.029Z,12.875
2018-08-19T01:11:04.143Z,12.875
2018-08-19T01:12:04.569Z,12.937
2018-08-19T01:13:04.531Z,12.937
2018-08-19T01:14:04.106Z,12.937
2018-08-19T01:15:03.499Z,13
2018-08-19T01:16:03.955Z,13
2018-08-19T01:17:04.239Z,13
2018-08-19T01:18:03.871Z,13
2018-08-19T01:19:04.520Z,12.937
2018-08-19T01:20:04.619Z,12.937
2018-08-19T01:21:03.749Z,12.937
2018-08-19T01:22:05.346Z,12.937
2018-08-19T01:23:03.974Z,12.937
2018-08-19T01:24:04.500Z,13
2018-08-19T01:25:03.803Z,13
2018-08-19T01:26:05.454Z,13
2018-08-19T01:27:04.571Z,13
2018-08-19T01:28:03.814Z,13
2018-08-19T01:29:04.063Z,12.937
2018-08-19T01:30:04.024Z,12.937
2018-08-19T01:31:04.349Z,12.875
2018-08-19T01:32:04.663Z,12.875
2018-08-19T01:33:05.276Z,12.812
2018-08-19T01:34:03.941Z,12.875
2018-08-19T01:35:03.707Z,12.812
2018-08-19T01:36:03.736Z,12.875
2018-08-19T01:37:05.331Z,12.875
2018-08-19T01:38:04.767Z,12.812
2018-08-19T01:39:05.384Z,12.812
2018-08-19T01:40:03.787Z,12.812
2018-08-19T01:41:03.938Z,12.812
2018-08-19T01:42:03.652Z,12.75
2018-08-19T01:43:03.811Z,12.75
2018-08-19T01:44:04.076Z,12.75
2018-08-19T01:45:04.066Z,12.687
2018-08-19T01:46:04.621Z,12.625
2018-08-19T01:47:03.810Z,12.625
2018-08-19T01:48:04.385Z,12.625
2018-08-19T01:49:06.037Z,12.625
2018-08-19T01:50:04.434Z,12.625
2018-08-19T01:51:04.632Z,12.625
2018-08-19T01:52:03.794Z,12.625
2018-08-19T01:53:04.387Z,12.625
2018-08-19T01:54:04.286Z,12.625
2018-08-19T01:55:03.882Z,12.687
2018-08-19T01:56:04.120Z,12.687
2018-08-19T01:57:05.104Z,12.687
2018-08-19T01:58:03.835Z,12.687
2018-08-19T01:59:05.369Z,12.75
2018-08-19T02:00:04.208Z,12.687
2018-08-19T02:01:04.661Z,12.75
2018-08-19T02:02:04.254Z,12.75
2018-08-19T02:03:04.038Z,12.75
2018-08-19T02:04:03.689Z,12.75
2018-08-19T02:05:05.131Z,12.812
2018-08-19T02:06:04.510Z,12.812
2018-08-19T02:07:03.906Z,12.812
2018-08-19T02:08:04.273Z,12.812
2018-08-19T02:09:04.267Z,12.875
2018-08-19T02:10:04.187Z,12.875
2018-08-19T02:11:03.988Z,12.875
2018-08-19T02:12:03.656Z,12.875
2018-08-19T02:13:03.746Z,12.937
2018-08-19T02:14:04.436Z,13.062
2018-08-19T02:15:03.964Z,13.125
2018-08-19T02:16:03.913Z,13.187
2018-08-19T02:17:04.352Z,13.312
2018-08-19T02:18:04.345Z,13.375
2018-08-19T02:19:03.984Z,13.437
2018-08-19T02:20:03.507Z,13.5
2018-08-19T02:21:04.692Z,13.562
2018-08-19T02:22:04.452Z,13.562
2018-08-19T02:23:04.152Z,13.562
2018-08-19T02:24:05.297Z,13.625
2018-08-19T02:25:03.750Z,13.687
2018-08-19T02:26:04.203Z,13.687
2018-08-19T02:27:04.044Z,13.625
2018-08-19T02:28:04.627Z,13.625
2018-08-19T02:29:04.227Z,13.625
2018-08-19T02:30:04.565Z,13.562
2018-08-19T02:31:04.724Z,13.562
2018-08-19T02:32:04.605Z,13.562
2018-08-19T02:33:03.755Z,13.5
2018-08-19T02:34:04.611Z,13.5
2018-08-19T02:35:04.294Z,13.5
2018-08-19T02:36:03.812Z,13.5
2018-08-19T02:37:04.792Z,13.5
2018-08-19T02:38:04.064Z,13.562
2018-08-19T02:39:04.661Z,13.562
2018-08-19T02:40:03.790Z,13.625
2018-08-19T02:41:04.031Z,13.625
2018-08-19T02:42:04.378Z,13.625
2018-08-19T02:43:04.236Z,13.687
2018-08-19T02:44:04.514Z,13.75
2018-08-19T02:45:06.534Z,13.812
2018-08-19T02:46:05.544Z,13.812
2018-08-19T02:47:04.272Z,13.812
2018-08-19T02:48:04.348Z,13.812
2018-08-19T02:49:05.215Z,13.75
2018-08-19T02:50:04.455Z,13.75
2018-08-19T02:51:04.268Z,13.687
2018-08-19T02:52:04.624Z,13.625
2018-08-19T02:53:04.173Z,13.625
2018-08-19T02:54:04.532Z,13.625
2018-08-19T02:55:03.746Z,13.625
2018-08-19T02:56:05.452Z,13.625
2018-08-19T02:57:03.759Z,13.687
2018-08-19T02:58:04.258Z,13.687
2018-08-19T02:59:04.267Z,13.687
2018-08-19T03:00:04.383Z,13.687
2018-08-19T03:01:03.844Z,13.687
2018-08-19T03:02:04.565Z,13.687
2018-08-19T03:03:03.910Z,13.687
2018-08-19T03:04:04.249Z,13.687
2018-08-19T03:05:04.420Z,13.687
2018-08-19T03:06:04.002Z,13.687
2018-08-19T03:07:04.488Z,13.687
2018-08-19T03:08:03.890Z,13.625
2018-08-19T03:09:04.120Z,13.625
2018-08-19T03:10:04.389Z,13.625
2018-08-19T03:11:03.962Z,13.687
2018-08-19T03:12:03.848Z,13.625
2018-08-19T03:13:04.596Z,13.687
2018-08-19T03:14:04.912Z,13.75
2018-08-19T03:15:04.217Z,13.75
2018-08-19T03:16:04.096Z,13.812
2018-08-19T03:17:04.370Z,13.875
2018-08-19T03:18:03.867Z,13.875
2018-08-19T03:19:06.028Z,13.937
2018-08-19T03:20:04.843Z,13.875
2018-08-19T03:21:03.799Z,13.875
2018-08-19T03:22:04.364Z,13.812
2018-08-19T03:23:04.481Z,13.687
2018-08-19T03:24:03.889Z,13.625
2018-08-19T03:25:04.044Z,13.5
2018-08-19T03:26:04.632Z,13.5
2018-08-19T03:27:04.279Z,13.437
2018-08-19T03:28:03.724Z,13.375
2018-08-19T03:29:03.764Z,13.312
2018-08-19T03:30:04.495Z,13.312
2018-08-19T03:31:03.698Z,13.312
2018-08-19T03:32:03.911Z,13.25
2018-08-19T03:33:04.752Z,13.25
2018-08-19T03:34:04.261Z,13.187
2018-08-19T03:35:03.922Z,13.187
2018-08-19T03:36:04.202Z,13.187
2018-08-19T03:37:03.677Z,13.187
2018-08-19T03:38:04.796Z,13.25
2018-08-19T03:39:04.611Z,13.25
2018-08-19T03:40:04.443Z,13.312
2018-08-19T03:41:04.611Z,13.25
2018-08-19T03:42:04.762Z,13.312
2018-08-19T03:43:03.687Z,13.312
2018-08-19T03:44:04.252Z,13.312
2018-08-19T03:45:04.531Z,13.312
2018-08-19T03:46:04.296Z,13.312
2018-08-19T03:47:03.961Z,13.25
2018-08-19T03:48:03.759Z,13.187
2018-08-19T03:49:03.936Z,13.187
2018-08-19T03:50:04.197Z,13.125
2018-08-19T03:51:04.304Z,13.125
2018-08-19T03:52:05.339Z,13.125
2018-08-19T03:53:03.997Z,13.187
2018-08-19T03:54:04.531Z,13.25
2018-08-19T03:55:04.103Z,13.312
2018-08-19T03:56:03.639Z,13.375
2018-08-19T03:57:04.604Z,13.375
2018-08-19T03:58:04.224Z,13.312
2018-08-19T03:59:04.982Z,13.312
2018-08-19T04:00:04.295Z,13.25
2018-08-19T04:01:04.519Z,13.187
2018-08-19T04:02:03.602Z,13.187
2018-08-19T04:03:03.834Z,13.25
2018-08-19T04:04:04.073Z,13.25
2018-08-19T04:05:03.904Z,13.312
2018-08-19T04:06:04.364Z,13.437
2018-08-19T04:07:04.083Z,13.5
2018-08-19T04:08:05.454Z,13.625
2018-08-19T04:09:04.524Z,13.75
2018-08-19T04:10:03.800Z,13.812
2018-08-19T04:11:03.937Z,13.937
2018-08-19T04:12:04.318Z,14
2018-08-19T04:13:03.997Z,14.125
2018-08-19T04:14:04.467Z,14.187
2018-08-19T04:15:04.498Z,14.25
2018-08-19T04:16:03.809Z,14.25
2018-08-19T04:17:04.797Z,14.25
2018-08-19T04:18:03.766Z,14.187
2018-08-19T04:19:04.295Z,14.125
2018-08-19T04:20:03.761Z,14.125
2018-08-19T04:21:05.328Z,14.125
2018-08-19T04:22:04.093Z,14.062
2018-08-19T04:23:04.309Z,14.062
2018-08-19T04:24:03.815Z,14.062
2018-08-19T04:25:06.708Z,14.125
2018-08-19T04:26:04.059Z,14.125
2018-08-19T04:27:04.204Z,14.187
2018-08-19T04:28:04.029Z,14.25
2018-08-19T04:29:03.642Z,14.312
2018-08-19T04:30:04.047Z,14.312
2018-08-19T04:31:04.415Z,14.375
2018-08-19T04:32:04.150Z,14.5
2018-08-19T04:33:05.325Z,14.625
2018-08-19T04:34:03.906Z,14.687
2018-08-19T04:35:04.506Z,14.75
2018-08-19T04:36:04.225Z,14.812
2018-08-19T04:37:05.671Z,14.875
2018-08-19T04:38:04.776Z,14.937
2018-08-19T04:39:04.871Z,14.937
2018-08-19T04:40:03.947Z,15
2018-08-19T04:41:07.559Z,15.062
2018-08-19T04:42:04.583Z,15.187
2018-08-19T04:43:04.811Z,15.375
2018-08-19T04:44:05.146Z,15.562
2018-08-19T04:45:04.210Z,15.687
2018-08-19T04:46:04.442Z,15.875
2018-08-19T04:47:04.268Z,15.937
2018-08-19T04:48:04.440Z,15.937
2018-08-19T04:49:03.833Z,15.937
2018-08-19T04:50:04.621Z,15.937
2018-08-19T04:51:04.154Z,15.937
2018-08-19T04:52:03.918Z,15.937
2018-08-19T04:53:03.668Z,15.937
2018-08-19T04:54:03.751Z,16.125
2018-08-19T04:55:04.588Z,16.25
2018-08-19T04:56:03.747Z,16.25
2018-08-19T04:57:04.111Z,16.25
2018-08-19T04:58:03.829Z,16.187
2018-08-19T04:59:04.452Z,16.187
2018-08-19T05:00:03.649Z,16.125
2018-08-19T05:01:04.406Z,16.125
2018-08-19T05:02:03.864Z,16.125
2018-08-19T05:03:04.070Z,16.125
2018-08-19T05:04:04.588Z,16.125
2018-08-19T05:05:04.116Z,16.125
2018-08-19T05:06:04.283Z,16.125
2018-08-19T05:07:03.819Z,16.062
2018-08-19T05:08:04.436Z,16.062
2018-08-19T05:09:05.147Z,16.062
2018-08-19T05:10:03.816Z,16.125
2018-08-19T05:11:04.588Z,16.125
2018-08-19T05:12:03.783Z,16.125
2018-08-19T05:13:04.235Z,16.125
2018-08-19T05:14:04.623Z,16.187
2018-08-19T05:15:04.597Z,16.25
2018-08-19T05:16:05.225Z,16.312
2018-08-19T05:17:04.645Z,16.437
2018-08-19T05:18:03.773Z,16.687
2018-08-19T05:19:04.649Z,16.875
2018-08-19T05:20:04.475Z,17.062
2018-08-19T05:21:04.350Z,17.25
2018-08-19T05:22:04.855Z,17.375
2018-08-19T05:23:04.568Z,17.437
2018-08-19T05:24:04.506Z,17.5
2018-08-19T05:25:03.478Z,17.562
2018-08-19T05:26:05.250Z,17.625
2018-08-19T05:27:04.505Z,17.75
2018-08-19T05:28:03.800Z,17.937
2018-08-19T05:29:04.419Z,18.25
2018-08-19T05:30:04.206Z,18.625
2018-08-19T05:31:03.830Z,19
2018-08-19T05:32:04.299Z,19.437
2018-08-19T05:33:04.182Z,19.875
2018-08-19T05:34:03.748Z,20.312
2018-08-19T05:35:04.002Z,20.687
2018-08-19T05:36:04.447Z,20.937
2018-08-19T05:37:04.243Z,21.312
2018-08-19T05:38:04.179Z,21.625
2018-08-19T05:39:04.203Z,21.812
2018-08-19T05:40:03.708Z,22.062
2018-08-19T05:41:04.067Z,22.187
2018-08-19T05:42:04.517Z,22.437
2018-08-19T05:43:03.805Z,22.625
2018-08-19T05:44:04.399Z,22.875
2018-08-19T05:45:04.842Z,23.125
2018-08-19T05:46:04.024Z,23.437
2018-08-19T05:47:04.416Z,23.625
2018-08-19T05:48:04.610Z,23.687
2018-08-19T05:49:04.340Z,23.687
2018-08-19T05:50:04.690Z,23.687
2018-08-19T05:51:04.185Z,23.75
2018-08-19T05:52:04.602Z,23.937
2018-08-19T05:53:03.888Z,24.125
2018-08-19T05:54:03.821Z,24.375
2018-08-19T05:55:04.175Z,24.375
2018-08-19T05:56:04.128Z,24.187
2018-08-19T05:57:04.057Z,24.312
2018-08-19T05:58:03.677Z,24.437
2018-08-19T05:59:04.258Z,24.625
2018-08-19T06:00:04.603Z,24.625
2018-08-19T06:01:04.227Z,24.75
2018-08-19T06:02:03.918Z,24.812
2018-08-19T06:03:03.590Z,24.812
2018-08-19T06:04:04.194Z,24.875
2018-08-19T06:05:03.348Z,25.062
2018-08-19T06:06:03.579Z,25.125
2018-08-19T06:07:04.525Z,25.125
2018-08-19T06:08:05.125Z,25.062
2018-08-19T06:09:04.148Z,24.937
2018-08-19T06:10:04.336Z,24.75
2018-08-19T06:11:03.975Z,24.625
2018-08-19T06:12:03.738Z,24.687
2018-08-19T06:13:03.871Z,24.75
2018-08-19T06:14:04.160Z,24.812
2018-08-19T06:15:04.885Z,24.812
2018-08-19T06:16:04.833Z,24.812
2018-08-19T06:17:05.479Z,24.75
2018-08-19T06:18:04.055Z,24.812
2018-08-19T06:19:04.204Z,24.875
2018-08-19T06:20:03.624Z,24.812
2018-08-19T06:21:04.226Z,24.75
2018-08-19T06:22:05.527Z,24.625
2018-08-19T06:23:04.029Z,24.562
2018-08-19T06:24:04.770Z,24.5
2018-08-19T06:25:04.668Z,24.5
2018-08-19T06:26:04.333Z,24.5
2018-08-19T06:27:04.201Z,24.5
2018-08-19T06:28:04.091Z,24.562
2018-08-19T06:29:04.378Z,24.687
2018-08-19T06:30:03.570Z,24.812
2018-08-19T06:31:03.723Z,24.812
2018-08-19T06:32:05.056Z,24.937
2018-08-19T06:33:03.722Z,25.062
2018-08-19T06:34:04.397Z,25.25
2018-08-19T06:35:04.296Z,25.375
2018-08-19T06:36:04.105Z,25.562
2018-08-19T06:37:04.579Z,25.5
2018-08-19T06:38:04.029Z,25.625
2018-08-19T06:39:04.100Z,25.75
2018-08-19T06:40:03.977Z,25.812
2018-08-19T06:41:06.675Z,25.937
2018-08-19T06:42:03.895Z,26.062
2018-08-19T06:43:04.722Z,26.187
2018-08-19T06:44:04.258Z,26.437
2018-08-19T06:45:03.807Z,26.5
2018-08-19T06:46:04.366Z,26.562
2018-08-19T06:47:03.846Z,26.562
2018-08-19T06:48:05.827Z,26.687
2018-08-19T06:49:03.877Z,26.75
2018-08-19T06:50:04.185Z,26.75
2018-08-19T06:51:03.879Z,26.75
2018-08-19T06:52:03.704Z,26.812
2018-08-19T06:53:04.302Z,26.625
2018-08-19T06:54:04.261Z,26.562
2018-08-19T06:55:03.708Z,26.375
2018-08-19T06:56:04.387Z,26.437
2018-08-19T06:57:05.658Z,26.562
2018-08-19T06:58:05.030Z,26.562
2018-08-19T06:59:04.489Z,26.687
2018-08-19T07:00:04.631Z,26.75
2018-08-19T07:01:04.431Z,26.687
2018-08-19T07:02:03.775Z,26.687
2018-08-19T07:03:04.123Z,26.687
2018-08-19T07:04:04.548Z,26.75
2018-08-19T07:05:04.599Z,26.875
2018-08-19T07:06:03.945Z,26.937
2018-08-19T07:07:04.297Z,27.062
2018-08-19T07:08:04.452Z,27.062
2018-08-19T07:09:04.445Z,27.125
2018-08-19T07:10:04.449Z,27.187
2018-08-19T07:11:03.923Z,27.187
2018-08-19T07:12:04.185Z,27.437
2018-08-19T07:13:04.376Z,27.625
2018-08-19T07:14:03.960Z,27.687
2018-08-19T07:15:03.462Z,27.562
2018-08-19T07:16:04.382Z,27.812
2018-08-19T07:17:03.969Z,28.062
2018-08-19T07:18:04.332Z,28.312
2018-08-19T07:19:03.903Z,28.375
2018-08-19T07:20:03.894Z,28.437
2018-08-19T07:21:04.605Z,28.562
2018-08-19T07:22:04.397Z,28.687
2018-08-19T07:23:04.319Z,28.687
2018-08-19T07:24:03.948Z,28.812
2018-08-19T07:25:04.584Z,28.875
2018-08-19T07:26:03.939Z,28.937
2018-08-19T07:27:04.604Z,29
2018-08-19T07:28:04.326Z,29.125
2018-08-19T07:29:04.297Z,29.125
2018-08-19T07:30:03.831Z,29.187
2018-08-19T07:31:04.326Z,29.25
2018-08-19T07:32:04.670Z,29.375
2018-08-19T07:33:04.169Z,29.437
2018-08-19T07:34:03.603Z,29.375
2018-08-19T07:35:04.127Z,29.5
2018-08-19T07:36:04.486Z,29.625
2018-08-19T07:37:03.785Z,29.687
2018-08-19T07:38:03.929Z,29.812
2018-08-19T07:39:04.586Z,29.937
2018-08-19T07:40:04.217Z,30.125
2018-08-19T07:41:04.238Z,30.062
2018-08-19T07:42:04.289Z,30
2018-08-19T07:43:03.995Z,30.125
2018-08-19T07:44:04.530Z,29.875
2018-08-19T07:45:04.266Z,29.75
2018-08-19T07:46:04.410Z,29.75
2018-08-19T07:47:03.969Z,29.875
2018-08-19T07:48:04.391Z,30
2018-08-19T07:49:04.551Z,30
2018-08-19T07:50:04.230Z,30
2018-08-19T07:51:04.396Z,30.062
2018-08-19T07:52:04.079Z,29.75
2018-08-19T07:53:03.655Z,29.812
2018-08-19T07:54:04.146Z,29.75
2018-08-19T07:55:03.960Z,29.75
2018-08-19T07:56:04.591Z,29.75
2018-08-19T07:57:03.995Z,29.625
2018-08-19T07:58:04.494Z,29.437
2018-08-19T07:59:04.214Z,29.437
2018-08-19T08:00:04.714Z,29.625
2018-08-19T08:01:04.054Z,30
2018-08-19T08:02:04.273Z,30.375
2018-08-19T08:03:03.968Z,30.625
2018-08-19T08:04:04.205Z,30.75
2018-08-19T08:05:04.500Z,30.812
2018-08-19T08:06:04.288Z,30.75
2018-08-19T08:07:03.823Z,30.75
2018-08-19T08:08:04.141Z,30.687
2018-08-19T08:09:04.825Z,30.687
2018-08-19T08:10:04.218Z,30.625
2018-08-19T08:11:04.622Z,30.625
2018-08-19T08:12:04.447Z,30.625
2018-08-19T08:13:04.268Z,30.687
2018-08-19T08:14:04.126Z,30.562
2018-08-19T08:15:04.492Z,30.625
2018-08-19T08:16:04.297Z,30.625
2018-08-19T08:17:04.253Z,30.562
2018-08-19T08:18:03.958Z,30.375
2018-08-19T08:19:04.688Z,30
2018-08-19T08:20:04.121Z,29.812
2018-08-19T08:21:04.524Z,29.812
2018-08-19T08:22:04.158Z,29.687
2018-08-19T08:23:04.697Z,29.437
2018-08-19T08:24:03.911Z,29.562
2018-08-19T08:25:05.782Z,29.5
2018-08-19T08:26:04.102Z,29.5
2018-08-19T08:27:03.734Z,29.437
2018-08-19T08:28:05.155Z,29.5
2018-08-19T08:29:03.772Z,29.562
2018-08-19T08:30:04.619Z,29.625
2018-08-19T08:31:04.012Z,29.562
2018-08-19T08:32:04.649Z,29.562
2018-08-19T08:33:04.139Z,29.312
2018-08-19T08:34:04.472Z,29.187
2018-08-19T08:35:03.854Z,29
2018-08-19T08:36:04.685Z,29
2018-08-19T08:37:04.004Z,29.125
2018-08-19T08:38:04.436Z,29.125
2018-08-19T08:39:04.993Z,29.125
2018-08-19T08:40:04.289Z,29.125
2018-08-19T08:41:04.018Z,29.375
2018-08-19T08:42:04.360Z,29.25
2018-08-19T08:43:04.767Z,29.062
2018-08-19T08:44:04.701Z,29
2018-08-19T08:45:04.342Z,29
2018-08-19T08:46:04.181Z,29.125
2018-08-19T08:47:04.128Z,29.125
2018-08-19T08:48:03.896Z,29.187
2018-08-19T08:49:04.598Z,29
2018-08-19T08:50:05.273Z,28.875
2018-08-19T08:51:04.492Z,28.812
2018-08-19T08:52:03.803Z,28.75
2018-08-19T08:53:04.447Z,28.75
2018-08-19T08:54:03.504Z,28.75
2018-08-19T08:55:04.143Z,28.875
2018-08-19T08:56:04.393Z,28.937
2018-08-19T08:57:05.992Z,28.75
2018-08-19T08:58:04.263Z,28.5
2018-08-19T08:59:04.535Z,28.437
2018-08-19T09:00:04.032Z,28.562
2018-08-19T09:01:03.649Z,28.625
2018-08-19T09:02:03.824Z,28.687
2018-08-19T09:03:04.157Z,28.75
2018-08-19T09:04:04.422Z,28.937
2018-08-19T09:05:04.456Z,29.062
2018-08-19T09:06:05.151Z,29.25
2018-08-19T09:07:04.496Z,29.187
2018-08-19T09:08:04.241Z,29.187
2018-08-19T09:09:04.383Z,29.25
2018-08-19T09:10:04.108Z,29.187
2018-08-19T09:11:03.788Z,29.125
2018-08-19T09:12:05.431Z,29.062
2018-08-19T09:13:04.695Z,29
2018-08-19T09:14:04.008Z,28.875
2018-08-19T09:15:04.599Z,28.75
2018-08-19T09:16:04.379Z,28.625
2018-08-19T09:17:05.022Z,28.625
2018-08-19T09:18:04.587Z,28.625
2018-08-19T09:19:04.299Z,28.687
2018-08-19T09:20:04.339Z,28.687
2018-08-19T09:21:04.000Z,28.625
2018-08-19T09:22:03.942Z,28.625
2018-08-19T09:23:03.973Z,28.562
2018-08-19T09:24:04.712Z,28.625
2018-08-19T09:25:03.849Z,28.687
2018-08-19T09:26:03.700Z,28.687
2018-08-19T09:27:03.794Z,28.75
2018-08-19T09:28:04.340Z,28.625
2018-08-19T09:29:04.274Z,28.625
2018-08-19T09:30:03.604Z,28.687
2018-08-19T09:31:05.316Z,28.562
2018-08-19T09:32:03.698Z,28.562
2018-08-19T09:33:04.591Z,28.562
2018-08-19T09:34:03.806Z,28.625
2018-08-19T09:35:04.236Z,28.562
2018-08-19T09:36:03.929Z,28.562
2018-08-19T09:37:04.344Z,28.687
2018-08-19T09:38:03.642Z,28.812
2018-08-19T09:39:05.504Z,28.875
2018-08-19T09:40:04.193Z,28.75
2018-08-19T09:41:03.970Z,28.75
2018-08-19T09:42:03.570Z,28.75
2018-08-19T09:43:03.524Z,28.812
2018-08-19T09:44:04.235Z,28.812
2018-08-19T09:45:03.859Z,28.75
2018-08-19T09:46:04.023Z,28.75
2018-08-19T09:47:04.498Z,28.812
2018-08-19T09:48:04.218Z,28.875
2018-08-19T09:49:04.050Z,28.937
2018-08-19T09:50:04.514Z,28.812
2018-08-19T09:51:04.453Z,28.75
2018-08-19T09:52:04.014Z,28.687
2018-08-19T09:53:04.679Z,28.625
2018-08-19T09:54:04.028Z,28.562
2018-08-19T09:55:04.507Z,28.562
2018-08-19T09:56:03.694Z,28.625
2018-08-19T09:57:04.313Z,28.625
2018-08-19T09:58:04.585Z,28.687
2018-08-19T09:59:04.329Z,28.625
2018-08-19T10:00:04.055Z,28.625
2018-08-19T10:01:04.026Z,28.5
2018-08-19T10:02:04.315Z,28.5
2018-08-19T10:03:03.744Z,28.5
2018-08-19T10:04:03.920Z,28.625
2018-08-19T10:05:04.483Z,28.625
2018-08-19T10:06:04.444Z,28.625
2018-08-19T10:07:03.639Z,28.625
2018-08-19T10:08:05.243Z,28.562
2018-08-19T10:09:04.136Z,28.562
2018-08-19T10:10:04.596Z,28.625
2018-08-19T10:11:03.630Z,28.625
2018-08-19T10:12:03.934Z,28.687
2018-08-19T10:13:03.873Z,28.562
2018-08-19T10:14:05.494Z,28.562
2018-08-19T10:15:03.643Z,28.437
2018-08-19T10:16:04.269Z,28.375
2018-08-19T10:17:04.067Z,28.375
2018-08-19T10:18:04.036Z,28.437
2018-08-19T10:19:04.474Z,28.437
2018-08-19T10:20:04.565Z,28.5
2018-08-19T10:21:04.244Z,28.5
2018-08-19T10:22:04.046Z,28.437
2018-08-19T10:23:03.809Z,28.437
2018-08-19T10:24:04.121Z,28.375
2018-08-19T10:25:04.309Z,28.375
2018-08-19T10:26:03.989Z,28.375
2018-08-19T10:27:03.788Z,28.375
2018-08-19T10:28:04.526Z,28.375
2018-08-19T10:29:04.504Z,28.375
2018-08-19T10:30:04.684Z,28.437
2018-08-19T10:31:04.466Z,28.437
2018-08-19T10:32:04.870Z,28.375
2018-08-19T10:33:04.334Z,28.375
2018-08-19T10:34:04.031Z,28.375
2018-08-19T10:35:04.290Z,28.375
2018-08-19T10:36:04.134Z,28.312
2018-08-19T10:37:03.780Z,28.25
2018-08-19T10:38:04.425Z,28.25
2018-08-19T10:39:04.268Z,28.312
2018-08-19T10:40:04.406Z,28.312
2018-08-19T10:41:04.650Z,28.312
2018-08-19T10:42:04.199Z,28.312
2018-08-19T10:43:04.344Z,28.312
2018-08-19T10:44:04.106Z,28.375
2018-08-19T10:45:04.670Z,28.375
2018-08-19T10:46:03.955Z,28.375
2018-08-19T10:47:04.588Z,28.437
2018-08-19T10:48:05.186Z,28.437
2018-08-19T10:49:04.570Z,28.437
2018-08-19T10:50:03.856Z,28.437
2018-08-19T10:51:04.587Z,28.437
2018-08-19T10:52:04.053Z,28.5
2018-08-19T10:53:04.570Z,28.437
2018-08-19T10:54:05.589Z,28.437
2018-08-19T10:55:04.125Z,28.437
2018-08-19T10:56:03.921Z,28.437
2018-08-19T10:57:03.831Z,28.437
2018-08-19T10:58:04.666Z,28.437
2018-08-19T10:59:04.274Z,28.375
2018-08-19T11:00:03.869Z,28.187
2018-08-19T11:01:04.765Z,28.062
2018-08-19T11:02:03.862Z,28
2018-08-19T11:03:04.405Z,28
2018-08-19T11:04:04.452Z,28.062
2018-08-19T11:05:03.883Z,28
2018-08-19T11:06:04.073Z,28.062
2018-08-19T11:07:04.691Z,28.187
2018-08-19T11:08:04.509Z,28.25
2018-08-19T11:09:04.484Z,28.312
2018-08-19T11:10:04.340Z,28.375
2018-08-19T11:11:04.243Z,28.375
2018-08-19T11:12:04.055Z,28.437
2018-08-19T11:13:04.762Z,28.5
2018-08-19T11:14:03.984Z,28.437
2018-08-19T11:15:04.676Z,28.312
2018-08-19T11:16:03.858Z,28.25
2018-08-19T11:17:04.489Z,28.25
2018-08-19T11:18:04.026Z,28.25
2018-08-19T11:19:04.634Z,28.312
2018-08-19T11:20:04.543Z,28.312
2018-08-19T11:21:04.022Z,28.312
2018-08-19T11:22:03.820Z,28.437
2018-08-19T11:23:04.572Z,28.5
2018-08-19T11:24:03.977Z,28.562
2018-08-19T11:25:04.200Z,28.687
2018-08-19T11:26:03.865Z,28.75
2018-08-19T11:27:04.141Z,28.75
2018-08-19T11:28:03.723Z,28.75
2018-08-19T11:29:04.153Z,28.812
2018-08-19T11:30:03.870Z,28.812
2018-08-19T11:31:04.197Z,28.937
2018-08-19T11:32:04.036Z,29
2018-08-19T11:33:04.917Z,29
2018-08-19T11:34:03.894Z,29
2018-08-19T11:35:03.430Z,29
2018-08-19T11:36:04.009Z,29
2018-08-19T11:37:04.628Z,29
2018-08-19T11:38:03.889Z,29
2018-08-19T11:39:04.638Z,28.937
2018-08-19T11:40:03.796Z,28.937
2018-08-19T11:41:04.226Z,29
2018-08-19T11:42:04.234Z,29
2018-08-19T11:43:05.254Z,29
2018-08-19T11:44:04.488Z,29
2018-08-19T11:45:03.592Z,28.937
2018-08-19T11:46:03.889Z,28.937
2018-08-19T11:47:04.142Z,28.937
2018-08-19T11:48:05.374Z,28.937
2018-08-19T11:49:04.719Z,29
2018-08-19T11:50:04.234Z,29
2018-08-19T11:51:04.634Z,28.937
2018-08-19T11:52:04.433Z,29
2018-08-19T11:53:03.848Z,29
2018-08-19T11:54:03.930Z,29
2018-08-19T11:55:04.536Z,29.062
2018-08-19T11:56:03.844Z,29.125
2018-08-19T11:57:04.124Z,29.187
2018-08-19T11:58:04.140Z,29.187
2018-08-19T11:59:03.897Z,29.187
2018-08-19T12:00:04.416Z,29.187
2018-08-19T12:01:03.921Z,29.187
2018-08-19T12:02:03.966Z,29.125
2018-08-19T12:03:03.723Z,29.125
2018-08-19T12:04:04.363Z,29.125
2018-08-19T12:05:03.821Z,29
2018-08-19T12:06:04.332Z,28.937
2018-08-19T12:07:04.606Z,28.875
2018-08-19T12:08:04.267Z,28.937
2018-08-19T12:09:04.155Z,29
2018-08-19T12:10:04.010Z,29.125
2018-08-19T12:11:04.245Z,29.187
2018-08-19T12:12:03.728Z,29.187
2018-08-19T12:13:04.363Z,29.187
2018-08-19T12:14:04.689Z,29.125
2018-08-19T12:15:04.451Z,29.125
2018-08-19T12:16:04.245Z,29.125
2018-08-19T12:17:03.972Z,29.125
2018-08-19T12:18:03.744Z,29.125
2018-08-19T12:19:04.573Z,29.062
2018-08-19T12:20:04.300Z,29
2018-08-19T12:21:04.536Z,29
2018-08-19T12:22:04.381Z,29.062
2018-08-19T12:23:03.742Z,29.125
2018-08-19T12:24:04.314Z,29.187
2018-08-19T12:25:04.490Z,29.125
2018-08-19T12:26:04.401Z,29
2018-08-19T12:27:04.188Z,29
2018-08-19T12:28:04.571Z,29.125
2018-08-19T12:29:04.577Z,29.125
2018-08-19T12:30:04.212Z,29.187
2018-08-19T12:31:04.701Z,29.25
2018-08-19T12:32:04.548Z,29.312
2018-08-19T12:33:03.627Z,29.375
2018-08-19T12:34:04.348Z,29.437
2018-08-19T12:35:04.042Z,29.437
2018-08-19T12:36:03.885Z,29.437
2018-08-19T12:37:04.293Z,29.5
2018-08-19T12:38:04.555Z,29.5
2018-08-19T12:39:04.711Z,29.5
2018-08-19T12:40:04.395Z,29.437